createdAt,value
2018-07-08T00:01:07.898Z,6.73
2018-07-08T00:03:35.926Z,7.13
2018-07-08T00:06:03.962Z,5.93
2018-07-08T00:08:31.970Z,8.17
2018-07-08T00:11:00.334Z,5.85
2018-07-08T00:13:28.351Z,5.27
2018-07-08T00:15:56.403Z,7.20
2018-07-08T00:18:24.831Z,5.57
2018-07-08T00:20:54.094Z,5.73
2018-07-08T00:23:22.963Z,7.80
2018-07-08T00:25:51.150Z,7.10
2018-07-08T00:28:19.379Z,10.33
2018-07-08T00:30:47.392Z,6.73
2018-07-08T00:33:15.404Z,7.23
2018-07-08T00:35:43.425Z,6.13
2018-07-08T00:38:11.449Z,7.97
2018-07-08T00:40:39.504Z,7.17
2018-07-08T00:43:07.532Z,6.53
2018-07-08T00:45:35.554Z,6.10
2018-07-08T00:48:03.578Z,6.37
2018-07-08T00:50:31.598Z,6.43
2018-07-08T00:52:59.613Z,5.83
2018-07-08T00:55:27.632Z,5.40
2018-07-08T00:57:55.646Z,5.40
2018-07-08T01:00:38.363Z,6.00
2018-07-08T01:03:07.566Z,6.13
2018-07-08T01:05:35.695Z,6.83
2018-07-08T01:08:04.176Z,7.90
2018-07-08T01:10:32.214Z,5.57
2018-07-08T01:13:00.853Z,5.50
2018-07-08T01:15:28.871Z,5.83
2018-07-08T01:17:56.906Z,5.65
2018-07-08T01:32:48.163Z,4.30
2018-07-08T01:35:16.183Z,4.93
2018-07-08T01:37:44.202Z,5.13
2018-07-08T01:40:12.227Z,6.03
2018-07-08T01:42:40.264Z,7.50
2018-07-08T01:47:35.666Z,5.27
2018-07-08T01:50:03.475Z,4.00
2018-07-08T01:52:31.498Z,6.93
2018-07-08T01:54:59.554Z,5.03
2018-07-08T02:14:40.986Z,8.07
2018-07-08T02:17:09.031Z,4.97
2018-07-08T02:19:37.239Z,5.20
2018-07-08T02:24:32.469Z,6.70
2018-07-08T02:27:00.483Z,9.87
2018-07-08T02:29:28.298Z,6.37
2018-07-08T02:31:56.323Z,5.30
2018-07-08T02:34:24.824Z,4.97
2018-07-08T02:36:52.863Z,6.07
2018-07-08T02:39:20.894Z,6.73
2018-07-08T02:41:48.910Z,6.77
2018-07-08T02:44:16.926Z,4.30
2018-07-08T02:46:44.946Z,6.17
2018-07-08T02:49:13.194Z,5.57
2018-07-08T02:51:41.243Z,5.40
2018-07-08T02:54:09.066Z,4.73
2018-07-08T02:56:37.078Z,4.63
2018-07-08T02:59:05.102Z,3.97
2018-07-08T03:01:33.123Z,6.77
2018-07-08T03:04:01.142Z,4.73
2018-07-08T03:06:29.150Z,4.80
2018-07-08T03:08:57.186Z,5.30
2018-07-08T03:11:25.190Z,4.23
2018-07-08T03:13:53.226Z,3.93
2018-07-08T03:16:21.027Z,5.37
2018-07-08T03:18:49.043Z,6.43
2018-07-08T03:21:17.088Z,4.33
2018-07-08T03:23:44.909Z,5.80
2018-07-08T03:26:12.960Z,5.93
2018-07-08T03:28:40.991Z,7.60
2018-07-08T03:31:09.009Z,6.70
2018-07-08T03:33:37.016Z,4.87
2018-07-08T03:36:05.075Z,5.60
2018-07-08T03:38:33.082Z,4.57
2018-07-08T03:41:01.175Z,4.63
2018-07-08T03:43:29.191Z,4.97
2018-07-08T03:45:57.215Z,5.27
2018-07-08T03:48:25.243Z,4.53
2018-07-08T03:50:53.341Z,6.73
2018-07-08T03:53:21.350Z,5.30
2018-07-08T03:55:49.367Z,7.00
2018-07-08T03:58:17.387Z,4.83
2018-07-08T04:00:45.394Z,4.60
2018-07-08T04:03:13.401Z,5.87
2018-07-08T04:05:41.414Z,5.20
2018-07-08T04:08:09.431Z,5.27
2018-07-08T04:10:37.454Z,8.50
2018-07-08T04:13:05.575Z,5.90
2018-07-08T04:15:33.610Z,5.07
2018-07-08T04:18:06.945Z,5.10
2018-07-08T04:20:35.395Z,6.40
2018-07-08T04:25:31.606Z,5.85
2018-07-08T04:27:59.627Z,7.00
2018-07-08T04:30:27.763Z,5.20
2018-07-08T04:32:55.771Z,5.97
2018-07-08T04:35:23.782Z,5.27
2018-07-08T04:37:51.797Z,5.20
2018-07-08T04:40:19.813Z,5.03
2018-07-08T04:42:47.912Z,7.37
2018-07-08T04:45:15.927Z,7.67
2018-07-08T04:47:43.946Z,5.13
2018-07-08T04:50:11.962Z,7.77
2018-07-08T04:52:40.117Z,4.57
2018-07-08T04:55:08.146Z,5.63
2018-07-08T04:57:36.150Z,5.17
2018-07-08T05:00:04.499Z,5.87
2018-07-08T05:02:32.547Z,4.93
2018-07-08T05:05:00.702Z,4.90
2018-07-08T05:07:28.711Z,7.37
2018-07-08T05:09:57.027Z,5.10
2018-07-08T05:12:25.183Z,5.87
2018-07-08T05:14:53.186Z,5.13
2018-07-08T05:17:21.190Z,4.97
2018-07-08T05:19:49.199Z,7.20
2018-07-08T05:22:17.025Z,5.03
2018-07-08T05:24:45.060Z,4.40
2018-07-08T05:27:13.066Z,5.53
2018-07-08T05:29:41.088Z,5.20
2018-07-08T05:32:09.098Z,4.73
2018-07-08T05:34:37.119Z,7.70
2018-07-08T05:37:05.791Z,4.70
2018-07-08T05:39:33.818Z,5.43
2018-07-08T05:42:01.851Z,5.37
2018-07-08T05:44:29.881Z,5.53
2018-07-08T05:46:57.882Z,5.97
2018-07-08T05:49:25.914Z,5.23
2018-07-08T05:51:53.934Z,5.40
2018-07-08T05:54:21.947Z,4.33
2018-07-08T05:56:49.963Z,5.97
2018-07-08T05:59:17.974Z,4.67
2018-07-08T06:01:45.992Z,5.43
2018-07-08T06:04:14.022Z,4.30
2018-07-08T06:06:42.045Z,4.33
2018-07-08T06:09:10.066Z,4.93
2018-07-08T06:11:38.118Z,4.97
2018-07-08T06:14:06.126Z,4.23
2018-07-08T06:16:34.142Z,4.07
2018-07-08T06:19:02.154Z,5.90
2018-07-08T06:21:30.167Z,4.27
2018-07-08T06:23:58.191Z,5.80
2018-07-08T06:26:26.222Z,3.97
2018-07-08T06:28:54.276Z,4.77
2018-07-08T06:31:22.290Z,4.50
2018-07-08T06:33:50.313Z,4.00
2018-07-08T06:36:18.318Z,5.33
2018-07-08T06:38:46.330Z,4.50
2018-07-08T06:41:14.342Z,3.97
2018-07-08T06:43:42.152Z,4.30
2018-07-08T06:46:10.163Z,6.73
2018-07-08T06:48:38.181Z,4.63
2018-07-08T06:51:06.203Z,5.87
2018-07-08T06:53:34.223Z,4.10
2018-07-08T06:56:02.268Z,5.30
2018-07-08T06:58:30.076Z,5.00
2018-07-08T07:00:58.271Z,3.43
2018-07-08T07:03:26.315Z,4.37
2018-07-08T07:05:54.344Z,4.23
2018-07-08T07:08:22.419Z,3.60
2018-07-08T07:10:50.486Z,4.43
2018-07-08T07:13:18.542Z,4.77
2018-07-08T07:15:46.559Z,4.53
2018-07-08T07:18:14.579Z,2.97
2018-07-08T07:20:42.627Z,5.03
2018-07-08T07:23:10.673Z,3.57
2018-07-08T07:25:38.683Z,4.63
2018-07-08T07:28:06.785Z,6.63
2018-07-08T07:30:34.846Z,2.77
2018-07-08T07:33:02.873Z,5.80
2018-07-08T07:35:30.904Z,3.10
2018-07-08T07:37:59.006Z,4.67
2018-07-08T07:40:27.035Z,4.10
2018-07-08T07:42:55.080Z,3.53
2018-07-08T07:45:23.107Z,4.83
2018-07-08T07:47:51.123Z,2.50
2018-07-08T07:50:19.162Z,3.47
2018-07-08T07:52:47.182Z,3.03
2018-07-08T07:55:15.219Z,4.60
2018-07-08T07:57:43.033Z,4.77
2018-07-08T08:00:11.063Z,6.03
2018-07-08T08:02:39.094Z,4.53
2018-07-08T08:05:07.116Z,3.93
2018-07-08T08:10:02.319Z,4.33
2018-07-08T08:12:30.545Z,3.07
2018-07-08T08:17:26.134Z,5.27
2018-07-08T08:19:54.176Z,4.10
2018-07-08T08:27:17.029Z,3.67
2018-07-08T08:29:45.051Z,3.50
2018-07-08T08:32:13.110Z,3.97
2018-07-08T08:37:31.471Z,3.77
2018-07-08T08:39:59.502Z,3.77
2018-07-08T08:42:27.511Z,5.90
2018-07-08T08:44:56.234Z,4.30
2018-07-08T08:47:24.694Z,2.67
2018-07-08T08:49:53.274Z,2.07
2018-07-08T08:52:21.367Z,5.40
2018-07-08T08:54:49.694Z,3.93
2018-07-08T08:57:17.711Z,6.77
2018-07-08T08:59:45.522Z,5.00
2018-07-08T09:07:10.266Z,3.43
2018-07-08T09:09:38.438Z,3.83
2018-07-08T09:12:07.011Z,6.87
2018-07-08T09:14:35.073Z,5.60
2018-07-08T09:17:03.086Z,3.33
2018-07-08T09:19:31.109Z,2.50
2018-07-08T09:24:26.655Z,7.10
2018-07-08T09:26:54.695Z,3.00
2018-07-08T09:29:22.879Z,2.75
2018-07-08T09:31:50.914Z,4.20
2018-07-08T09:34:18.927Z,5.50
2018-07-08T09:36:46.946Z,3.90
2018-07-08T09:41:43.762Z,3.27
2018-07-08T09:44:12.703Z,2.10
2018-07-08T09:54:03.874Z,4.00
2018-07-08T09:56:31.975Z,3.03
2018-07-08T09:59:00.164Z,2.80
2018-07-08T10:01:28.234Z,5.63
2018-07-08T10:03:56.249Z,4.30
2018-07-08T10:06:24.282Z,4.27
2018-07-08T10:08:52.294Z,3.60
2018-07-08T10:13:47.724Z,3.23
2018-07-08T10:16:15.743Z,3.73
2018-07-08T10:18:43.770Z,6.50
2018-07-08T10:21:11.582Z,4.33
2018-07-08T10:23:39.607Z,3.27
2018-07-08T10:31:02.226Z,2.92
2018-07-08T10:34:05.718Z,5.95
2018-07-08T10:36:33.733Z,5.55
2018-07-08T10:39:01.753Z,4.65
2018-07-08T10:41:29.782Z,3.55
2018-07-08T10:43:57.843Z,4.05
2018-07-08T10:53:47.986Z,6.53
2018-07-08T10:56:15.999Z,5.03
2018-07-08T11:06:06.114Z,3.83
2018-07-08T11:08:34.130Z,4.62
2018-07-08T11:11:02.142Z,3.70
2018-07-08T11:15:57.517Z,4.80
2018-07-08T12:24:44.398Z,1.70
2018-07-08T12:27:12.415Z,2.52
2018-07-08T12:29:40.440Z,3.12
2018-07-08T12:32:08.512Z,5.90
2018-07-08T12:34:36.338Z,3.95
2018-07-08T12:37:04.451Z,3.15
2018-07-08T12:44:27.234Z,4.47
2018-07-08T12:46:55.222Z,3.10
2018-07-08T12:51:50.602Z,3.05
2018-07-08T12:54:18.654Z,5.97
2018-07-08T12:56:46.670Z,3.05
2018-07-08T12:59:14.686Z,3.90
2018-07-08T13:01:42.734Z,3.35
2018-07-08T13:16:27.823Z,3.00
2018-07-08T13:23:51.356Z,2.60
2018-07-08T13:26:19.438Z,2.02
2018-07-08T13:28:47.385Z,1.70
2018-07-08T13:31:15.405Z,1.90
2018-07-08T13:33:43.414Z,2.40
2018-07-08T13:38:38.786Z,2.85
2018-07-08T13:46:01.777Z,2.15
2018-07-08T13:48:29.786Z,1.60
2018-07-08T14:05:41.986Z,2.75
2018-07-08T14:08:10.004Z,1.30
2018-07-08T14:10:38.526Z,2.77
2018-07-08T14:13:06.762Z,4.33
2018-07-08T14:15:34.771Z,2.08
2018-07-08T14:18:02.777Z,3.85
2018-07-08T14:22:58.146Z,1.98
2018-07-08T14:30:20.886Z,3.10
2018-07-08T14:32:48.894Z,5.75
2018-07-08T14:35:16.907Z,2.40
2018-07-08T14:45:06.995Z,2.50
2018-07-08T14:50:02.379Z,3.92
2018-07-08T14:52:30.394Z,2.50
2018-07-08T15:24:26.568Z,3.23
2018-07-08T15:26:54.574Z,1.77
2018-07-08T15:29:22.587Z,1.82
2018-07-08T15:36:45.147Z,1.95
2018-07-08T15:39:13.162Z,2.15
2018-07-08T15:41:41.241Z,2.15
2018-07-08T15:58:53.510Z,2.80
2018-07-08T16:33:17.178Z,1.20
2018-07-08T16:45:36.600Z,1.37
2018-07-08T16:57:54.099Z,0.90
2018-07-08T17:39:39.618Z,2.23
2018-07-08T18:21:26.183Z,2.15
2018-07-08T18:23:54.239Z,3.52
2018-07-08T18:31:16.956Z,1.70
2018-07-08T18:43:34.467Z,2.40
2018-07-08T18:46:02.705Z,1.30
2018-07-08T18:48:30.698Z,1.85
2018-07-08T18:50:58.751Z,1.30
2018-07-08T18:53:26.948Z,1.60
2018-07-08T19:05:44.347Z,3.40
2018-07-08T19:40:07.867Z,1.60
2018-07-08T19:42:35.882Z,2.20
2018-07-08T19:45:03.915Z,2.57
2018-07-08T19:47:32.013Z,1.70
2018-07-08T19:49:59.998Z,2.00
2018-07-08T19:52:28.021Z,1.00
2018-07-08T19:54:56.043Z,1.17
2018-07-08T19:57:24.063Z,2.67
2018-07-08T19:59:52.098Z,4.90
2018-07-08T20:04:47.726Z,1.50
2018-07-08T20:39:11.691Z,6.77
2018-07-08T20:41:39.702Z,2.73
2018-07-08T20:44:07.749Z,2.30
2018-07-08T20:46:35.789Z,1.90
2018-07-08T20:49:03.824Z,2.30
2018-07-08T20:51:31.874Z,3.53
2018-07-08T20:53:59.902Z,2.00
2018-07-08T20:56:27.709Z,1.53
2018-07-08T20:58:55.743Z,2.30
2018-07-08T21:01:23.858Z,3.03
2018-07-08T21:03:51.947Z,1.93
2018-07-08T21:06:19.986Z,5.07
2018-07-08T21:08:48.034Z,1.47
2018-07-08T21:11:15.853Z,3.67
2018-07-08T21:13:43.994Z,1.60
2018-07-08T21:16:12.026Z,2.70
2018-07-08T21:28:29.738Z,0.73
2018-07-08T21:33:25.402Z,1.27
2018-07-08T21:35:53.426Z,1.10
2018-07-08T21:38:21.831Z,1.20
2018-07-08T21:40:49.862Z,1.87
2018-07-08T21:43:17.898Z,2.17
2018-07-08T21:45:45.923Z,0.87
2018-07-08T21:48:13.968Z,1.70
2018-07-08T21:50:41.769Z,1.60
2018-07-08T21:53:09.791Z,1.73
2018-07-08T21:55:37.815Z,3.97
2018-07-08T21:58:05.847Z,1.13
2018-07-08T22:00:33.955Z,1.03
2018-07-08T22:03:02.026Z,1.77
2018-07-08T22:05:31.014Z,1.73
2018-07-08T22:08:03.774Z,1.07
2018-07-08T22:10:32.442Z,1.27
2018-07-08T22:13:01.731Z,3.03
2018-07-08T22:15:30.017Z,1.10
2018-07-08T22:17:58.226Z,1.67
2018-07-08T22:20:26.819Z,1.83
2018-07-08T22:22:54.840Z,3.77
2018-07-08T22:25:22.654Z,0.90
2018-07-08T22:27:50.674Z,1.60
2018-07-08T22:30:18.698Z,1.43
2018-07-08T22:32:46.726Z,1.53
2018-07-08T22:35:14.791Z,0.90
2018-07-08T22:37:42.819Z,3.83
2018-07-08T22:40:10.831Z,1.37
2018-07-08T22:42:38.847Z,2.37
2018-07-08T22:45:06.879Z,4.77
2018-07-08T22:47:34.943Z,1.20
2018-07-08T22:50:02.962Z,3.70
2018-07-08T22:52:30.986Z,1.23
2018-07-08T22:54:59.012Z,1.93
2018-07-08T22:57:27.047Z,3.37
2018-07-08T23:00:06.362Z,3.43
2018-07-08T23:02:41.118Z,1.73
2018-07-08T23:05:09.127Z,1.93
2018-07-08T23:07:37.702Z,3.03
2018-07-08T23:10:05.727Z,1.50
2018-07-08T23:12:33.743Z,1.40
2018-07-08T23:15:01.784Z,1.97
2018-07-08T23:17:29.794Z,1.93
2018-07-08T23:19:57.865Z,2.40
2018-07-08T23:22:37.514Z,4.03
2018-07-08T23:25:05.770Z,1.73
2018-07-08T23:27:33.774Z,1.60
2018-07-08T23:30:01.582Z,1.97
2018-07-08T23:32:29.603Z,1.63
2018-07-08T23:34:57.726Z,3.13
2018-07-08T23:37:25.774Z,1.90
2018-07-08T23:39:53.799Z,2.50
2018-07-08T23:42:21.810Z,1.70
2018-07-08T23:44:49.618Z,1.50
2018-07-08T23:47:17.734Z,2.90
2018-07-08T23:49:45.784Z,3.00
2018-07-08T23:52:13.875Z,2.10
2018-07-08T23:54:41.902Z,2.80
2018-07-08T23:57:09.919Z,4.80
2018-07-08T23:59:37.943Z,2.03
